Time;durP1;ratioP1;P1;durP2;ratioP2;P2;SDS_P1;SDS_P2;PMS_P1;PMS_P2;Temp;Humidity;BMP_temperature;BMP_pressure;BME280_temperature;BME280_humidity;BME280_pressure;Samples;Min_cycle;Max_cycle;Signal;HPM_P1;HPM_P2
2022/10/21 00:00:30;;;;;;;1.27;1.17;;;;;;;;;;5073749;28;20117;-85
2022/10/21 00:02:56;;;;;;;1.40;1.30;;;;;;;;;;5073004;28;20048;-85
2022/10/21 00:05:23;;;;;;;3.40;2.58;;;;;;;;;;5073657;28;20504;-85
2022/10/21 00:07:49;;;;;;;1.90;1.73;;;;;;;;;;5072649;28;20048;-85
2022/10/21 00:10:16;;;;;;;0.77;0.77;;;;;;;;;;5073655;28;20048;-85
2022/10/21 00:12:44;;;;;;;1.00;0.98;;;;;;;;;;5073608;28;20053;-85
2022/10/21 00:15:10;;;;;;;1.13;1.02;;;;;;;;;;5073457;28;20052;-85
2022/10/21 00:17:38;;;;;;;1.85;1.35;;;;;;;;;;5073045;28;20044;-85
2022/10/21 00:20:05;;;;;;;1.67;1.58;;;;;;;;;;5073369;28;20060;-85
2022/10/21 00:22:32;;;;;;;1.13;0.73;;;;;;;;;;5073490;28;20052;-84
2022/10/21 00:24:58;;;;;;;0.85;0.85;;;;;;;;;;5072428;28;20053;-85
2022/10/21 00:27:25;;;;;;;0.63;0.60;;;;;;;;;;5073306;28;20117;-86
2022/10/21 00:29:53;;;;;;;0.47;0.40;;;;;;;;;;5073253;28;20114;-85
2022/10/21 00:32:19;;;;;;;0.47;0.47;;;;;;;;;;5073100;28;20106;-85
2022/10/21 00:34:47;;;;;;;0.88;0.77;;;;;;;;;;5073138;28;20098;-86
2022/10/21 00:37:16;;;;;;;1.15;1.05;;;;;;;;;;5073150;28;20049;-85
2022/10/21 00:39:42;;;;;;;2.60;1.17;;;;;;;;;;5073148;28;20049;-85
2022/10/21 00:42:14;;;;;;;1.13;1.00;;;;;;;;;;5072053;28;20040;-86
2022/10/21 00:44:40;;;;;;;1.08;1.05;;;;;;;;;;5072952;28;20102;-85
2022/10/21 00:47:10;;;;;;;0.55;0.50;;;;;;;;;;5072739;28;20044;-86
2022/10/21 00:49:38;;;;;;;2.03;1.92;;;;;;;;;;5073119;28;20048;-85
2022/10/21 00:52:06;;;;;;;1.75;1.48;;;;;;;;;;5072823;28;20122;-86
2022/10/21 00:54:33;;;;;;;0.98;0.98;;;;;;;;;;5072876;28;20098;-84
2022/10/21 00:56:59;;;;;;;0.88;0.73;;;;;;;;;;5072514;28;20105;-85
2022/10/21 00:59:28;;;;;;;1.50;1.40;;;;;;;;;;5071135;28;20109;-85
2022/10/21 01:01:55;;;;;;;1.92;1.77;;;;;;;;;;5072335;28;20117;-85
2022/10/21 01:04:23;;;;;;;0.60;0.60;;;;;;;;;;5072623;28;20098;-85
2022/10/21 01:06:50;;;;;;;2.42;2.28;;;;;;;;;;5072417;28;20098;-85
2022/10/21 01:09:17;;;;;;;2.17;2.08;;;;;;;;;;5072564;28;20045;-85
2022/10/21 01:11:45;;;;;;;1.52;1.42;;;;;;;;;;5072224;28;20044;-84
2022/10/21 01:14:32;;;;;;;2.53;1.83;;;;;;;;;;5071367;28;20464;-85
2022/10/21 01:17:05;;;;;;;1.02;1.00;;;;;;;;;;5066944;28;20101;-85
2022/10/21 01:19:43;;;;;;;2.60;2.50;;;;;;;;;;5072357;28;20114;-85
2022/10/21 01:22:17;;;;;;;1.02;1.00;;;;;;;;;;5072216;28;20086;-86
2022/10/21 01:24:58;;;;;;;0.77;0.77;;;;;;;;;;5072176;28;20106;-85
2022/10/21 01:27:29;;;;;;;0.75;0.75;;;;;;;;;;5064721;28;20056;-86
2022/10/21 01:30:10;;;;;;;1.70;1.60;;;;;;;;;;5052271;28;20057;-86
2022/10/21 01:32:47;;;;;;;1.73;1.63;;;;;;;;;;5061147;28;20178;-86
2022/10/21 01:35:19;;;;;;;1.58;1.50;;;;;;;;;;5071924;28;20048;-85
2022/10/21 01:37:51;;;;;;;3.20;3.10;;;;;;;;;;5071748;28;20499;-86
2022/10/21 01:40:19;;;;;;;0.73;0.73;;;;;;;;;;5071859;28;20491;-86
2022/10/21 01:42:50;;;;;;;1.15;1.10;;;;;;;;;;5062256;28;20479;-85
2022/10/21 01:45:20;;;;;;;1.20;1.17;;;;;;;;;;5051970;28;20100;-85
2022/10/21 01:47:49;;;;;;;1.40;1.30;;;;;;;;;;5059294;28;20109;-86
2022/10/21 01:50:17;;;;;;;4.65;3.22;;;;;;;;;;5072096;28;20052;-85
2022/10/21 01:52:45;;;;;;;3.05;1.02;;;;;;;;;;5071534;28;20118;-85
2022/10/21 01:55:14;;;;;;;1.75;1.65;;;;;;;;;;5071954;28;20089;-85
2022/10/21 01:57:42;;;;;;;2.22;1.20;;;;;;;;;;5071659;28;20052;-85
2022/10/21 02:00:09;;;;;;;2.53;2.33;;;;;;;;;;5071675;28;20060;-85
2022/10/21 02:02:38;;;;;;;1.90;1.80;;;;;;;;;;5071445;28;20056;-85
2022/10/21 02:05:09;;;;;;;1.58;1.48;;;;;;;;;;5070959;28;20095;-85
2022/10/21 02:07:36;;;;;;;0.55;0.55;;;;;;;;;;5071601;28;20052;-84
2022/10/21 02:10:04;;;;;;;1.50;1.30;;;;;;;;;;5071739;28;20044;-85
2022/10/21 02:12:32;;;;;;;0.77;0.77;;;;;;;;;;5071487;28;20533;-85
2022/10/21 02:15:00;;;;;;;2.10;1.95;;;;;;;;;;5071440;28;20060;-84
2022/10/21 02:17:27;;;;;;;0.68;0.60;;;;;;;;;;5071449;28;20102;-84
2022/10/21 02:19:54;;;;;;;0.80;0.80;;;;;;;;;;5071530;28;20455;-85
2022/10/21 02:22:23;;;;;;;1.63;1.52;;;;;;;;;;5070529;28;20037;-85
2022/10/21 02:24:52;;;;;;;0.73;0.57;;;;;;;;;;5071645;28;20450;-85
2022/10/21 02:27:19;;;;;;;1.40;1.35;;;;;;;;;;5071395;28;20056;-85
2022/10/21 02:29:46;;;;;;;0.93;0.90;;;;;;;;;;5071411;28;20543;-85
2022/10/21 02:32:21;;;;;;;2.13;2.03;;;;;;;;;;5071362;28;20130;-85
2022/10/21 02:34:55;;;;;;;0.95;0.95;;;;;;;;;;5071551;28;20097;-85
2022/10/21 02:37:25;;;;;;;2.05;1.95;;;;;;;;;;5071309;28;20169;-85
2022/10/21 02:39:56;;;;;;;2.92;1.75;;;;;;;;;;5070398;28;20094;-85
2022/10/21 02:42:25;;;;;;;1.48;1.38;;;;;;;;;;5071198;28;20041;-85
2022/10/21 02:44:52;;;;;;;0.45;0.30;;;;;;;;;;5071543;28;20053;-85
2022/10/21 02:47:19;;;;;;;1.33;1.27;;;;;;;;;;5071505;28;20052;-85
2022/10/21 02:49:45;;;;;;;1.48;1.38;;;;;;;;;;5071241;28;20126;-84
2022/10/21 02:52:12;;;;;;;0.45;0.40;;;;;;;;;;5071208;28;20048;-84
2022/10/21 02:54:40;;;;;;;1.77;1.67;;;;;;;;;;5071394;28;20106;-85
2022/10/21 02:57:06;;;;;;;1.15;1.08;;;;;;;;;;5070060;28;20060;-85
2022/10/21 02:59:33;;;;;;;1.17;1.08;;;;;;;;;;5051309;28;20057;-85
2022/10/21 03:01:59;;;;;;;0.95;0.95;;;;;;;;;;5051121;28;20090;-85
2022/10/21 03:04:26;;;;;;;1.45;1.35;;;;;;;;;;5051135;28;20106;-85
2022/10/21 03:06:52;;;;;;;1.55;1.20;;;;;;;;;;5051412;28;20098;-85
2022/10/21 03:09:19;;;;;;;0.80;0.80;;;;;;;;;;5050936;28;20110;-85
2022/10/21 03:11:46;;;;;;;1.33;1.23;;;;;;;;;;5051101;28;20048;-84
2022/10/21 03:14:13;;;;;;;0.60;0.60;;;;;;;;;;5063417;28;20056;-84
2022/10/21 03:16:39;;;;;;;1.60;1.52;;;;;;;;;;5070867;28;20044;-84
2022/10/21 03:19:06;;;;;;;2.17;1.35;;;;;;;;;;5070637;28;20607;-84
2022/10/21 03:21:32;;;;;;;1.90;1.75;;;;;;;;;;5071552;28;20470;-84
2022/10/21 03:23:59;;;;;;;0.77;0.77;;;;;;;;;;5074348;28;20052;-84
2022/10/21 03:26:25;;;;;;;1.98;1.83;;;;;;;;;;5074457;28;20052;-84
2022/10/21 03:28:53;;;;;;;2.20;2.00;;;;;;;;;;5074256;28;20651;-84
2022/10/21 03:31:20;;;;;;;0.28;0.20;;;;;;;;;;5073571;28;20553;-85
2022/10/21 03:33:46;;;;;;;0.65;0.65;;;;;;;;;;5074291;28;20052;-84
2022/10/21 03:36:13;;;;;;;2.13;2.03;;;;;;;;;;5074305;28;20052;-85
2022/10/21 03:38:39;;;;;;;2.15;1.98;;;;;;;;;;5074089;28;20114;-85
2022/10/21 03:41:06;;;;;;;1.20;1.20;;;;;;;;;;5074440;28;20056;-85
2022/10/21 03:43:32;;;;;;;0.50;0.45;;;;;;;;;;5073973;28;20551;-85
2022/10/21 03:46:00;;;;;;;0.50;0.45;;;;;;;;;;5074530;28;20113;-84
2022/10/21 03:48:26;;;;;;;1.80;1.70;;;;;;;;;;5073035;28;20111;-84
2022/10/21 03:50:54;;;;;;;1.23;1.13;;;;;;;;;;5074029;28;20125;-84
2022/10/21 03:53:21;;;;;;;1.90;1.20;;;;;;;;;;5073688;28;20083;-84
2022/10/21 03:55:47;;;;;;;2.33;1.80;;;;;;;;;;5074168;28;20049;-84
2022/10/21 03:58:14;;;;;;;0.80;0.77;;;;;;;;;;5073865;28;20044;-84
2022/10/21 04:00:40;;;;;;;1.35;1.30;;;;;;;;;;5074115;28;20052;-84
2022/10/21 04:03:08;;;;;;;1.48;1.42;;;;;;;;;;5073585;28;20044;-84
2022/10/21 04:05:35;;;;;;;1.80;1.67;;;;;;;;;;5072745;28;20049;-85
2022/10/21 04:08:01;;;;;;;1.65;1.55;;;;;;;;;;5073559;28;20044;-85
2022/10/21 04:10:28;;;;;;;1.13;1.02;;;;;;;;;;5073971;28;20113;-85
2022/10/21 04:12:54;;;;;;;1.88;1.45;;;;;;;;;;5073323;28;20447;-85
2022/10/21 04:15:21;;;;;;;0.75;0.70;;;;;;;;;;5073745;28;20102;-86
2022/10/21 04:17:47;;;;;;;0.95;0.95;;;;;;;;;;5073492;28;20053;-86
2022/10/21 04:20:17;;;;;;;3.28;1.98;;;;;;;;;;5073409;28;20114;-85
2022/10/21 04:22:43;;;;;;;0.98;0.98;;;;;;;;;;5072261;28;20060;-85
2022/10/21 04:25:10;;;;;;;1.10;1.05;;;;;;;;;;5073721;28;20131;-85
2022/10/21 04:27:36;;;;;;;1.15;1.05;;;;;;;;;;5073347;28;20569;-85
2022/10/21 04:30:03;;;;;;;0.85;0.63;;;;;;;;;;5073084;28;20052;-85
2022/10/21 04:32:30;;;;;;;0.95;0.95;;;;;;;;;;5072967;28;20048;-85
2022/10/21 04:34:56;;;;;;;2.65;1.38;;;;;;;;;;5071956;28;20118;-86
2022/10/21 04:37:24;;;;;;;1.38;1.23;;;;;;;;;;5073191;28;20082;-85
2022/10/21 04:39:50;;;;;;;1.10;0.90;;;;;;;;;;5055849;28;20049;-85
2022/10/21 04:42:17;;;;;;;1.60;1.50;;;;;;;;;;5052783;28;20485;-85
2022/10/21 04:44:43;;;;;;;7.28;2.92;;;;;;;;;;5053133;28;20052;-85
2022/10/21 04:47:10;;;;;;;0.82;0.82;;;;;;;;;;5052995;28;20477;-85
2022/10/21 04:49:36;;;;;;;1.35;1.23;;;;;;;;;;5052731;28;20099;-84
2022/10/21 04:52:03;;;;;;;2.65;1.27;;;;;;;;;;5053000;28;20568;-84
2022/10/21 04:54:31;;;;;;;1.13;1.10;;;;;;;;;;5061044;28;20052;-85
2022/10/21 04:56:57;;;;;;;0.57;0.35;;;;;;;;;;5072563;28;20052;-84
2022/10/21 04:59:24;;;;;;;0.70;0.70;;;;;;;;;;5072605;28;20139;-84
2022/10/21 05:01:50;;;;;;;1.05;1.05;;;;;;;;;;5073032;28;20472;-84
2022/10/21 05:04:17;;;;;;;1.27;1.25;;;;;;;;;;5072238;28;20060;-84
2022/10/21 05:06:43;;;;;;;1.38;0.55;;;;;;;;;;5072866;28;20056;-84
2022/10/21 05:09:10;;;;;;;2.80;2.60;;;;;;;;;;5072343;28;20570;-84
2022/10/21 05:11:37;;;;;;;1.27;0.98;;;;;;;;;;5071637;28;20098;-84
2022/10/21 05:14:04;;;;;;;1.35;1.25;;;;;;;;;;5072342;28;20056;-85
2022/10/21 05:16:30;;;;;;;1.10;1.00;;;;;;;;;;5072403;28;20393;-85
2022/10/21 05:18:57;;;;;;;1.63;1.52;;;;;;;;;;5072066;28;20056;-85
2022/10/21 05:21:23;;;;;;;3.58;2.03;;;;;;;;;;5072199;28;20060;-84
2022/10/21 05:23:50;;;;;;;2.60;2.40;;;;;;;;;;5072007;28;20468;-84
2022/10/21 05:26:16;;;;;;;0.65;0.65;;;;;;;;;;5072159;28;20106;-85
2022/10/21 05:28:44;;;;;;;3.63;3.42;;;;;;;;;;5071690;28;20044;-85
2022/10/21 05:31:11;;;;;;;1.30;1.13;;;;;;;;;;5071205;28;20056;-85
2022/10/21 05:33:37;;;;;;;0.47;0.32;;;;;;;;;;5071672;28;20122;-84
2022/10/21 05:36:06;;;;;;;0.60;0.52;;;;;;;;;;5071917;28;20056;-84
2022/10/21 05:38:33;;;;;;;0.95;0.85;;;;;;;;;;5071801;28;20721;-85
2022/10/21 05:40:59;;;;;;;1.45;1.35;;;;;;;;;;5072065;28;20454;-84
2022/10/21 05:43:27;;;;;;;2.45;1.55;;;;;;;;;;5062089;28;20048;-84
2022/10/21 05:45:55;;;;;;;0.70;0.65;;;;;;;;;;5061476;28;20049;-85
2022/10/21 05:48:22;;;;;;;0.90;0.88;;;;;;;;;;5060652;28;20106;-85
2022/10/21 05:50:51;;;;;;;1.67;1.58;;;;;;;;;;5061016;28;20049;-85
2022/10/21 05:53:18;;;;;;;0.40;0.22;;;;;;;;;;5060787;28;20040;-85
2022/10/21 05:55:44;;;;;;;1.08;1.05;;;;;;;;;;5060845;28;20049;-85
2022/10/21 05:58:11;;;;;;;1.10;1.00;;;;;;;;;;5061415;28;20048;-85
2022/10/21 06:00:37;;;;;;;0.95;0.95;;;;;;;;;;5064270;28;20458;-84
2022/10/21 06:03:05;;;;;;;2.53;2.42;;;;;;;;;;5072053;28;20056;-85
2022/10/21 06:05:31;;;;;;;2.05;1.95;;;;;;;;;;5071510;28;20044;-86
2022/10/21 06:07:58;;;;;;;1.40;1.33;;;;;;;;;;5071878;28;20117;-85
2022/10/21 06:10:24;;;;;;;0.68;0.68;;;;;;;;;;5071659;28;20090;-85
2022/10/21 06:12:51;;;;;;;1.50;1.27;;;;;;;;;;5071887;28;20454;-85
2022/10/21 06:15:17;;;;;;;1.45;0.77;;;;;;;;;;5071331;28;20052;-84
2022/10/21 06:17:44;;;;;;;2.03;1.92;;;;;;;;;;5065452;28;20064;-84
2022/10/21 06:20:12;;;;;;;2.03;1.83;;;;;;;;;;5070797;28;20496;-85
2022/10/21 06:22:38;;;;;;;1.75;1.65;;;;;;;;;;5071534;28;20052;-86
2022/10/21 06:25:07;;;;;;;1.70;1.60;;;;;;;;;;5060664;28;20052;-84
2022/10/21 06:27:34;;;;;;;1.80;1.70;;;;;;;;;;5054254;28;20083;-84
2022/10/21 06:30:00;;;;;;;1.83;1.67;;;;;;;;;;5055207;28;20053;-84
2022/10/21 06:32:27;;;;;;;3.13;2.92;;;;;;;;;;5050930;28;20070;-84
2022/10/21 06:34:53;;;;;;;4.05;2.65;;;;;;;;;;5051147;28;20053;-85
2022/10/21 06:37:21;;;;;;;3.90;1.92;;;;;;;;;;5056541;28;20053;-85
2022/10/21 06:39:47;;;;;;;1.67;1.55;;;;;;;;;;5054347;28;20048;-83
2022/10/21 06:42:14;;;;;;;3.13;2.90;;;;;;;;;;5053928;28;20459;-84
2022/10/21 06:44:40;;;;;;;2.53;2.33;;;;;;;;;;5062273;28;20102;-85
2022/10/21 06:47:07;;;;;;;14.02;2.85;;;;;;;;;;5050627;28;20053;-85
2022/10/21 06:49:34;;;;;;;1.85;1.75;;;;;;;;;;5050744;28;20060;-84
2022/10/21 06:52:00;;;;;;;1.90;1.80;;;;;;;;;;5051019;28;20459;-85
2022/10/21 06:54:28;;;;;;;1.40;1.33;;;;;;;;;;5050551;28;20057;-84
2022/10/21 06:56:54;;;;;;;3.45;3.25;;;;;;;;;;5051426;28;20053;-85
2022/10/21 06:59:21;;;;;;;2.42;2.25;;;;;;;;;;5054476;28;20045;-84
2022/10/21 07:01:47;;;;;;;1.67;1.58;;;;;;;;;;5059454;28;20060;-84
2022/10/21 07:04:14;;;;;;;3.53;3.28;;;;;;;;;;5060251;28;20044;-84
2022/10/21 07:06:40;;;;;;;2.28;2.13;;;;;;;;;;5065966;28;20048;-84
2022/10/21 07:09:08;;;;;;;2.03;1.80;;;;;;;;;;5071581;28;20053;-83
2022/10/21 07:11:36;;;;;;;9.32;3.22;;;;;;;;;;5054095;28;20052;-84
2022/10/21 07:14:02;;;;;;;3.00;1.40;;;;;;;;;;5054369;28;20500;-85
2022/10/21 07:16:30;;;;;;;1.55;1.45;;;;;;;;;;5059596;28;20492;-85
2022/10/21 07:18:57;;;;;;;5.57;5.22;;;;;;;;;;5054786;28;20053;-85
2022/10/21 07:21:25;;;;;;;2.35;2.15;;;;;;;;;;5059751;28;20098;-85
2022/10/21 07:23:52;;;;;;;2.63;2.38;;;;;;;;;;5073708;28;20040;-85
2022/10/21 07:26:19;;;;;;;2.92;2.72;;;;;;;;;;5058022;28;20061;-86
2022/10/21 07:28:48;;;;;;;2.25;1.95;;;;;;;;;;5053964;28;20053;-86
2022/10/21 07:31:14;;;;;;;2.78;2.60;;;;;;;;;;5053619;28;20072;-86
2022/10/21 07:33:41;;;;;;;1.45;1.35;;;;;;;;;;5053885;28;20049;-85
2022/10/21 07:36:08;;;;;;;2.88;1.90;;;;;;;;;;5053864;28;20125;-84
2022/10/21 07:38:35;;;;;;;1.83;1.67;;;;;;;;;;5065123;28;20056;-87
2022/10/21 07:41:02;;;;;;;2.75;2.42;;;;;;;;;;5056098;28;20049;-84
2022/10/21 07:43:28;;;;;;;6.55;4.72;;;;;;;;;;5053629;28;20110;-84
2022/10/21 07:45:57;;;;;;;2.72;1.83;;;;;;;;;;5052370;28;20052;-83
2022/10/21 07:48:23;;;;;;;2.78;1.42;;;;;;;;;;5055367;28;20044;-83
2022/10/21 07:50:53;;;;;;;3.65;3.22;;;;;;;;;;5061928;28;20049;-83
2022/10/21 07:53:20;;;;;;;4.05;2.40;;;;;;;;;;5053361;28;20118;-83
2022/10/21 07:55:46;;;;;;;2.75;2.50;;;;;;;;;;5052287;28;20056;-84
2022/10/21 07:58:13;;;;;;;5.50;3.15;;;;;;;;;;5052838;28;20049;-83
2022/10/21 08:00:42;;;;;;;3.50;3.30;;;;;;;;;;5051523;28;20044;-84
2022/10/21 08:03:11;;;;;;;3.67;3.47;;;;;;;;;;5062773;28;20045;-83
2022/10/21 08:05:40;;;;;;;3.05;2.85;;;;;;;;;;5068555;28;20542;-84
2022/10/21 08:08:06;;;;;;;1.88;1.77;;;;;;;;;;5070543;28;20110;-84
2022/10/21 08:10:33;;;;;;;3.83;3.60;;;;;;;;;;5063414;28;20054;-84
2022/10/21 08:12:59;;;;;;;2.88;2.72;;;;;;;;;;5064460;28;20051;-84
2022/10/21 08:15:26;;;;;;;7.68;3.28;;;;;;;;;;5062383;28;20519;-84
2022/10/21 08:17:52;;;;;;;3.63;3.42;;;;;;;;;;5061762;28;20048;-83
2022/10/21 08:20:21;;;;;;;3.78;3.47;;;;;;;;;;5067035;28;20048;-83
2022/10/21 08:22:47;;;;;;;3.88;3.58;;;;;;;;;;5061386;28;20052;-85
2022/10/21 08:25:15;;;;;;;3.13;2.92;;;;;;;;;;5072674;28;20040;-85
2022/10/21 08:27:42;;;;;;;1.98;1.88;;;;;;;;;;5056657;28;20049;-85
2022/10/21 08:30:08;;;;;;;4.00;3.80;;;;;;;;;;5067094;28;20060;-85
2022/10/21 08:32:35;;;;;;;3.78;3.58;;;;;;;;;;5072511;28;20044;-84
2022/10/21 08:35:01;;;;;;;3.17;2.13;;;;;;;;;;5068313;28;20593;-84
2022/10/21 08:37:30;;;;;;;3.92;3.63;;;;;;;;;;5072208;28;20060;-84
2022/10/21 08:39:57;;;;;;;4.15;3.95;;;;;;;;;;5069502;28;20523;-84
2022/10/21 08:42:24;;;;;;;4.00;3.78;;;;;;;;;;5062788;28;20052;-85
2022/10/21 08:44:53;;;;;;;4.10;3.65;;;;;;;;;;5068811;28;20037;-85
2022/10/21 08:47:29;;;;;;;2.75;2.42;;;;;;;;;;5072595;28;20399;-85
2022/10/21 08:49:58;;;;;;;3.45;3.25;;;;;;;;;;5069122;28;20056;-85
2022/10/21 08:52:27;;;;;;;4.47;4.18;;;;;;;;;;5073685;28;20056;-84
2022/10/21 08:54:57;;;;;;;3.15;2.92;;;;;;;;;;5066213;28;20040;-86
2022/10/21 08:57:24;;;;;;;3.95;3.72;;;;;;;;;;5071075;28;20052;-85
2022/10/21 08:59:50;;;;;;;3.88;3.58;;;;;;;;;;5064978;28;20040;-85
2022/10/21 09:02:29;;;;;;;3.92;3.22;;;;;;;;;;5070867;28;20086;-84
2022/10/21 09:05:06;;;;;;;3.38;2.92;;;;;;;;;;5068711;28;20045;-85
2022/10/21 09:07:39;;;;;;;5.70;3.78;;;;;;;;;;5065301;28;20114;-85
2022/10/21 09:10:15;;;;;;;5.43;5.03;;;;;;;;;;5071922;28;20109;-85
2022/10/21 09:12:50;;;;;;;3.92;3.33;;;;;;;;;;5070013;28;20131;-85
2022/10/21 09:15:23;;;;;;;2.60;2.50;;;;;;;;;;5071982;28;20117;-84
2022/10/21 09:17:55;;;;;;;3.50;3.20;;;;;;;;;;5071816;28;20056;-85
2022/10/21 09:20:28;;;;;;;3.38;3.08;;;;;;;;;;5071911;28;20059;-85
2022/10/21 09:23:00;;;;;;;5.05;4.75;;;;;;;;;;5071234;28;20052;-86
2022/10/21 09:25:32;;;;;;;4.55;4.25;;;;;;;;;;5051256;28;20715;-85
2022/10/21 09:27:59;;;;;;;5.82;3.22;;;;;;;;;;5051970;28;20052;-85
2022/10/21 09:30:25;;;;;;;3.55;3.30;;;;;;;;;;5051701;28;20466;-85
2022/10/21 09:32:55;;;;;;;5.10;4.80;;;;;;;;;;5051579;28;20110;-86
2022/10/21 09:35:26;;;;;;;3.92;3.67;;;;;;;;;;5051680;28;20094;-85
2022/10/21 09:37:55;;;;;;;6.60;5.03;;;;;;;;;;5067132;28;20073;-85
2022/10/21 09:40:22;;;;;;;4.93;4.50;;;;;;;;;;5063069;28;20045;-86
2022/10/21 09:42:51;;;;;;;5.07;4.75;;;;;;;;;;5072420;28;20048;-85
2022/10/21 09:45:20;;;;;;;4.75;4.43;;;;;;;;;;5064551;28;20091;-85
2022/10/21 09:47:50;;;;;;;4.18;3.95;;;;;;;;;;5071081;28;20466;-85
2022/10/21 09:50:17;;;;;;;4.00;2.72;;;;;;;;;;5065640;28;20071;-86
2022/10/21 09:52:46;;;;;;;5.55;4.65;;;;;;;;;;5056480;28;20138;-86
2022/10/21 09:55:14;;;;;;;6.32;5.82;;;;;;;;;;5057868;28;20060;-86
2022/10/21 09:57:45;;;;;;;4.18;3.78;;;;;;;;;;5063030;28;20052;-86
2022/10/21 10:00:13;;;;;;;6.57;4.78;;;;;;;;;;5070438;28;20048;-86
2022/10/21 10:02:42;;;;;;;3.53;3.25;;;;;;;;;;5071363;28;20044;-86
2022/10/21 10:05:29;;;;;;;3.65;3.38;;;;;;;;;;5070224;28;20048;-85
2022/10/21 10:07:55;;;;;;;5.22;4.38;;;;;;;;;;5071234;28;20052;-86
2022/10/21 10:10:29;;;;;;;5.57;5.07;;;;;;;;;;5069591;28;20044;-85
2022/10/21 10:12:56;;;;;;;4.70;3.55;;;;;;;;;;5066379;28;20057;-85
2022/10/21 10:15:25;;;;;;;10.63;4.72;;;;;;;;;;5055586;28;20049;-86
2022/10/21 10:17:56;;;;;;;4.20;3.63;;;;;;;;;;5050947;28;20059;-85
2022/10/21 10:20:22;;;;;;;3.92;3.63;;;;;;;;;;5051173;28;20045;-86
2022/10/21 10:23:04;;;;;;;5.72;5.20;;;;;;;;;;5055563;28;20056;-86
2022/10/21 10:25:31;;;;;;;8.18;4.25;;;;;;;;;;5068241;28;20102;-88
2022/10/21 10:27:59;;;;;;;4.00;3.70;;;;;;;;;;5070621;28;20059;-87
2022/10/21 10:30:29;;;;;;;4.88;4.43;;;;;;;;;;5068414;28;20131;-88
2022/10/21 10:32:56;;;;;;;4.50;4.10;;;;;;;;;;5078859;28;20118;-88
2022/10/21 10:35:25;;;;;;;5.45;5.05;;;;;;;;;;5075825;28;20045;-86
2022/10/21 10:37:52;;;;;;;4.30;3.90;;;;;;;;;;5077032;28;20049;-86
2022/10/21 10:40:22;;;;;;;5.28;4.97;;;;;;;;;;5074812;28;20060;-87
2022/10/21 10:42:50;;;;;;;5.63;5.13;;;;;;;;;;5055244;28;20049;-87
2022/10/21 10:45:19;;;;;;;8.15;5.15;;;;;;;;;;5070260;28;20110;-87
2022/10/21 10:47:48;;;;;;;4.35;4.03;;;;;;;;;;5057926;28;20493;-86
2022/10/21 10:50:29;;;;;;;6.10;5.63;;;;;;;;;;5074883;28;20045;-87
2022/10/21 10:53:09;;;;;;;6.13;5.45;;;;;;;;;;5073690;28;20555;-86
2022/10/21 10:55:42;;;;;;;7.05;6.45;;;;;;;;;;5057431;28;20111;-86
2022/10/21 10:58:09;;;;;;;6.10;5.65;;;;;;;;;;5054793;28;20056;-86
2022/10/21 11:00:40;;;;;;;4.80;4.32;;;;;;;;;;5054644;28;20060;-87
2022/10/21 11:03:10;;;;;;;6.72;6.20;;;;;;;;;;5056992;28;20048;-86
2022/10/21 11:05:39;;;;;;;5.78;5.38;;;;;;;;;;5062601;28;20049;-87
2022/10/21 11:08:06;;;;;;;11.57;8.57;;;;;;;;;;5070262;28;20463;-87
2022/10/21 11:10:34;;;;;;;5.32;4.82;;;;;;;;;;5074327;28;20129;-86
2022/10/21 11:13:01;;;;;;;5.25;4.90;;;;;;;;;;5067204;28;20053;-86
2022/10/21 11:15:32;;;;;;;7.10;6.45;;;;;;;;;;5054796;28;20130;-85
2022/10/21 11:18:01;;;;;;;6.82;6.32;;;;;;;;;;5054598;28;20065;-84
2022/10/21 11:20:32;;;;;;;7.82;6.90;;;;;;;;;;5057104;28;20520;-85
2022/10/21 11:23:04;;;;;;;8.15;7.55;;;;;;;;;;5054383;28;20049;-85
2022/10/21 11:25:33;;;;;;;5.50;5.10;;;;;;;;;;5054461;28;20053;-85
2022/10/21 11:28:10;;;;;;;5.53;5.13;;;;;;;;;;5053602;28;20057;-85
2022/10/21 11:30:42;;;;;;;5.40;5.00;;;;;;;;;;5054020;28;20048;-85
2022/10/21 11:33:12;;;;;;;8.30;7.60;;;;;;;;;;5054319;28;20106;-84
2022/10/21 11:35:46;;;;;;;6.43;5.90;;;;;;;;;;5065263;28;20515;-84
2022/10/21 11:38:22;;;;;;;6.63;6.10;;;;;;;;;;5074341;28;20053;-84
2022/10/21 11:40:49;;;;;;;6.00;5.57;;;;;;;;;;5073924;28;20056;-84
2022/10/21 11:43:20;;;;;;;7.45;6.95;;;;;;;;;;5073381;28;20655;-85
2022/10/21 11:45:51;;;;;;;9.30;8.45;;;;;;;;;;5073925;28;20447;-85
2022/10/21 11:48:24;;;;;;;8.18;7.57;;;;;;;;;;5073064;28;20044;-85
2022/10/21 11:50:57;;;;;;;6.85;6.30;;;;;;;;;;5061272;28;20044;-85
2022/10/21 11:53:32;;;;;;;6.93;6.43;;;;;;;;;;5055608;28;20049;-85
2022/10/21 11:56:03;;;;;;;7.05;6.65;;;;;;;;;;5053711;28;20558;-85
2022/10/21 11:58:32;;;;;;;6.47;5.97;;;;;;;;;;5053459;28;20049;-86
2022/10/21 12:01:04;;;;;;;7.07;6.57;;;;;;;;;;5052677;28;20103;-85
2022/10/21 12:03:39;;;;;;;6.05;5.63;;;;;;;;;;5060880;28;20110;-86
2022/10/21 12:06:13;;;;;;;5.18;4.78;;;;;;;;;;5057100;28;20106;-85
2022/10/21 12:08:49;;;;;;;5.45;5.05;;;;;;;;;;5060037;28;20052;-85
2022/10/21 12:11:19;;;;;;;6.05;5.50;;;;;;;;;;5063700;28;20053;-85
2022/10/21 12:13:47;;;;;;;8.07;7.28;;;;;;;;;;5069441;28;20044;-85
2022/10/21 12:16:16;;;;;;;5.20;4.70;;;;;;;;;;5071484;28;20091;-85
2022/10/21 12:18:43;;;;;;;8.05;7.45;;;;;;;;;;5065459;28;20501;-85
2022/10/21 12:21:14;;;;;;;8.63;6.30;;;;;;;;;;5063285;28;20488;-85
2022/10/21 12:23:41;;;;;;;5.63;5.13;;;;;;;;;;5066253;28;20052;-85
2022/10/21 12:26:16;;;;;;;6.07;5.68;;;;;;;;;;5064196;28;20048;-87
2022/10/21 12:28:45;;;;;;;6.18;5.65;;;;;;;;;;5065071;28;20037;-85
2022/10/21 12:31:20;;;;;;;8.32;7.25;;;;;;;;;;5063210;28;20053;-85
2022/10/21 12:33:48;;;;;;;6.18;5.63;;;;;;;;;;5063488;28;20094;-85
2022/10/21 12:36:18;;;;;;;6.88;4.95;;;;;;;;;;5064297;28;20101;-85
2022/10/21 12:38:46;;;;;;;9.30;7.97;;;;;;;;;;5065556;28;20048;-84
2022/10/21 12:41:36;;;;;;;7.22;6.63;;;;;;;;;;5067462;28;20049;-85
2022/10/21 12:44:19;;;;;;;7.93;6.20;;;;;;;;;;5048917;28;20102;-85
2022/10/21 12:46:48;;;;;;;6.80;6.30;;;;;;;;;;5059865;28;20071;-84
2022/10/21 12:49:19;;;;;;;5.90;5.22;;;;;;;;;;5072656;28;20048;-85
2022/10/21 12:51:50;;;;;;;6.38;5.88;;;;;;;;;;5069895;28;20101;-85
2022/10/21 12:54:18;;;;;;;6.50;6.00;;;;;;;;;;5071729;28;20044;-84
2022/10/21 12:56:46;;;;;;;5.13;4.72;;;;;;;;;;5067725;28;20049;-86
2022/10/21 12:59:25;;;;;;;4.55;4.15;;;;;;;;;;5071903;28;20545;-84
2022/10/21 13:02:06;;;;;;;6.45;6.03;;;;;;;;;;5066205;28;20055;-85
2022/10/21 13:04:47;;;;;;;5.25;4.75;;;;;;;;;;5068657;28;20808;-85
2022/10/21 13:07:31;;;;;;;9.63;8.32;;;;;;;;;;5063780;28;20078;-84
2022/10/21 13:10:21;;;;;;;6.88;6.43;;;;;;;;;;5079845;28;20044;-85
2022/10/21 13:12:48;;;;;;;7.63;7.05;;;;;;;;;;5044959;28;20130;-85
2022/10/21 13:15:41;;;;;;;7.40;6.78;;;;;;;;;;5071354;28;20427;-86
2022/10/21 13:18:08;;;;;;;5.57;4.85;;;;;;;;;;5066815;28;20058;-85
2022/10/21 13:20:44;;;;;;;5.30;4.90;;;;;;;;;;5060121;28;20114;-85
2022/10/21 13:23:32;;;;;;;7.53;6.40;;;;;;;;;;5056349;28;20049;-85
2022/10/21 13:26:15;;;;;;;5.88;5.38;;;;;;;;;;5051919;28;20050;-85
2022/10/21 13:28:42;;;;;;;5.50;5.10;;;;;;;;;;5052109;28;20103;-85
2022/10/21 13:31:09;;;;;;;5.75;5.35;;;;;;;;;;5051924;28;20444;-84
2022/10/21 13:33:36;;;;;;;7.15;6.50;;;;;;;;;;5051794;28;20052;-85
2022/10/21 13:36:08;;;;;;;5.30;5.00;;;;;;;;;;5051054;28;20099;-85
2022/10/21 13:38:37;;;;;;;5.32;4.93;;;;;;;;;;5067193;28;20105;-85
2022/10/21 13:41:05;;;;;;;6.07;5.70;;;;;;;;;;5071554;28;20488;-86
2022/10/21 13:43:35;;;;;;;5.95;5.45;;;;;;;;;;5070408;28;20057;-85
2022/10/21 13:46:04;;;;;;;4.78;4.38;;;;;;;;;;5071682;28;20048;-85
2022/10/21 13:48:30;;;;;;;4.85;4.45;;;;;;;;;;5072669;28;20048;-84
2022/10/21 13:51:09;;;;;;;5.35;4.95;;;;;;;;;;5071595;28;20044;-85
2022/10/21 13:53:42;;;;;;;6.07;5.50;;;;;;;;;;5071284;28;20659;-84
2022/10/21 13:56:17;;;;;;;6.43;5.85;;;;;;;;;;5071745;28;20055;-84
2022/10/21 13:58:44;;;;;;;6.10;5.60;;;;;;;;;;5079371;28;20056;-84
2022/10/21 14:01:11;;;;;;;6.20;5.75;;;;;;;;;;5074422;28;20048;-84
2022/10/21 14:03:38;;;;;;;6.63;6.13;;;;;;;;;;5068963;28;20044;-84
2022/10/21 14:06:07;;;;;;;6.07;5.53;;;;;;;;;;5062106;28;20052;-84
2022/10/21 14:08:34;;;;;;;5.18;4.78;;;;;;;;;;5059748;28;20118;-84
2022/10/21 14:11:04;;;;;;;9.77;4.97;;;;;;;;;;5052818;28;20048;-84
2022/10/21 14:13:34;;;;;;;8.98;8.30;;;;;;;;;;5051420;28;20056;-84
2022/10/21 14:16:00;;;;;;;5.40;4.95;;;;;;;;;;5051463;28;20051;-84
2022/10/21 14:18:29;;;;;;;6.93;6.40;;;;;;;;;;5051047;28;20455;-84
2022/10/21 14:20:56;;;;;;;5.70;5.30;;;;;;;;;;5050858;28;20059;-84
2022/10/21 14:23:23;;;;;;;5.18;4.68;;;;;;;;;;5051373;28;20061;-84
2022/10/21 14:25:50;;;;;;;5.82;5.30;;;;;;;;;;5057392;28;20553;-84
2022/10/21 14:28:19;;;;;;;7.38;6.78;;;;;;;;;;5071041;28;20438;-84
2022/10/21 14:30:46;;;;;;;6.93;6.03;;;;;;;;;;5063133;28;20049;-84
2022/10/21 14:33:14;;;;;;;4.90;4.47;;;;;;;;;;5070512;28;20048;-84
2022/10/21 14:35:41;;;;;;;5.88;5.35;;;;;;;;;;5070158;28;20055;-85
2022/10/21 14:38:24;;;;;;;6.70;6.28;;;;;;;;;;5067838;28;20048;-84
2022/10/21 14:40:56;;;;;;;8.07;7.53;;;;;;;;;;5054859;28;20047;-84
2022/10/21 14:43:27;;;;;;;5.10;4.70;;;;;;;;;;5066539;28;20107;-84
2022/10/21 14:45:54;;;;;;;6.28;5.78;;;;;;;;;;5070521;28;20122;-85
2022/10/21 14:48:25;;;;;;;7.40;6.78;;;;;;;;;;5058198;28;20108;-85
2022/10/21 14:50:52;;;;;;;5.70;5.10;;;;;;;;;;5070323;28;20048;-85
2022/10/21 14:53:21;;;;;;;8.25;7.55;;;;;;;;;;5063325;28;20048;-85